Time;durP1;ratioP1;P1;durP2;ratioP2;P2;SDS_P1;SDS_P2;PMS_P1;PMS_P2;Temp;Humidity;BMP_temperature;BMP_pressure;BME280_temperature;BME280_humidity;BME280_pressure;Samples;Min_cycle;Max_cycle;Signal;HPM_P1;HPM_P2
2021/06/04 00:00:15;;;;;;;22.33;11.95;;;;;;;;;;5080436;28;20036;-92
2021/06/04 00:02:42;;;;;;;19.05;8.73;;;;;;;;;;5080083;28;20036;-93
2021/06/04 00:05:08;;;;;;;11.25;6.60;;;;;;;;;;5079938;28;20103;-92
2021/06/04 00:07:35;;;;;;;11.35;6.20;;;;;;;;;;5079964;28;20021;-92
2021/06/04 00:10:01;;;;;;;12.57;5.18;;;;;;;;;;5080056;28;20025;-90
2021/06/04 00:12:27;;;;;;;11.82;5.97;;;;;;;;;;5079939;28;20117;-90
2021/06/04 00:14:53;;;;;;;6.18;5.22;;;;;;;;;;5079295;28;20027;-91
2021/06/04 00:17:23;;;;;;;8.88;5.10;;;;;;;;;;5078784;28;20439;-91
2021/06/04 00:19:49;;;;;;;11.65;5.22;;;;;;;;;;5079006;28;20345;-90
2021/06/04 00:22:17;;;;;;;9.57;4.80;;;;;;;;;;5080009;28;20031;-91
2021/06/04 00:24:44;;;;;;;15.63;6.88;;;;;;;;;;5080076;28;20027;-89
2021/06/04 00:27:11;;;;;;;10.13;5.53;;;;;;;;;;5079697;28;20028;-89
2021/06/04 00:29:37;;;;;;;13.38;6.28;;;;;;;;;;5078849;28;20135;-89
2021/06/04 00:32:04;;;;;;;7.50;5.45;;;;;;;;;;5078439;28;20017;-89
2021/06/04 00:34:31;;;;;;;10.95;5.63;;;;;;;;;;5079083;28;20052;-90
2021/06/04 00:36:57;;;;;;;9.93;5.30;;;;;;;;;;5078584;28;20055;-90
2021/06/04 00:39:25;;;;;;;10.27;5.53;;;;;;;;;;5079727;28;20043;-89
2021/06/04 00:41:51;;;;;;;10.23;5.90;;;;;;;;;;5079357;28;20017;-89
2021/06/04 00:44:18;;;;;;;8.85;5.57;;;;;;;;;;5078650;28;20039;-89
2021/06/04 00:46:44;;;;;;;9.98;5.80;;;;;;;;;;5079251;28;20025;-88
2021/06/04 00:49:11;;;;;;;9.70;5.47;;;;;;;;;;5078292;28;20364;-89
2021/06/04 00:51:41;;;;;;;7.88;5.80;;;;;;;;;;5079445;28;20048;-89
2021/06/04 00:54:08;;;;;;;6.80;5.53;;;;;;;;;;5078858;28;20414;-89
2021/06/04 00:56:35;;;;;;;9.55;5.43;;;;;;;;;;5079372;28;20017;-89
2021/06/04 00:59:02;;;;;;;12.60;6.78;;;;;;;;;;5078975;28;20055;-89
2021/06/04 01:01:30;;;;;;;11.73;7.70;;;;;;;;;;5078821;28;20056;-89
2021/06/04 01:04:01;;;;;;;11.15;8.02;;;;;;;;;;5078931;28;20040;-89
2021/06/04 01:06:46;;;;;;;12.82;6.38;;;;;;;;;;5078850;28;20028;-89
2021/06/04 01:09:23;;;;;;;11.68;6.10;;;;;;;;;;5079133;28;20028;-88
2021/06/04 01:11:55;;;;;;;8.75;5.63;;;;;;;;;;5078857;28;20023;-89
2021/06/04 01:14:21;;;;;;;;;;;;;;;;;;5078818;28;20025;-89
2021/06/04 01:16:57;;;;;;;11.73;5.18;;;;;;;;;;5078683;28;19904;-88
2021/06/04 01:19:43;;;;;;;8.38;4.60;;;;;;;;;;5078569;28;20021;-89
2021/06/04 01:22:12;;;;;;;7.63;4.80;;;;;;;;;;5078527;28;20013;-90
2021/06/04 01:24:49;;;;;;;8.65;5.30;;;;;;;;;;5078852;28;20024;-91
2021/06/04 01:27:24;;;;;;;8.20;5.30;;;;;;;;;;5078506;28;20028;-90
2021/06/04 01:29:54;;;;;;;7.60;5.68;;;;;;;;;;5078295;28;20093;-89
2021/06/04 01:32:23;;;;;;;8.55;4.90;;;;;;;;;;5077065;28;20318;-90
2021/06/04 01:34:55;;;;;;;10.18;5.75;;;;;;;;;;5078215;28;20037;-88
2021/06/04 01:37:31;;;;;;;9.02;5.15;;;;;;;;;;5077359;28;20020;-88
2021/06/04 01:40:00;;;;;;;8.80;5.63;;;;;;;;;;5078276;28;20103;-88
2021/06/04 01:42:45;;;;;;;9.45;5.80;;;;;;;;;;5077517;28;20295;-90
2021/06/04 01:45:17;;;;;;;7.07;4.97;;;;;;;;;;5078427;28;20314;-89
2021/06/04 01:47:45;;;;;;;8.60;5.00;;;;;;;;;;5078080;28;20044;-90
2021/06/04 01:50:33;;;;;;;7.97;4.85;;;;;;;;;;5077898;28;20028;-88
2021/06/04 01:53:01;;;;;;;7.22;5.38;;;;;;;;;;5077909;28;20059;-89
2021/06/04 01:55:30;;;;;;;7.32;5.50;;;;;;;;;;5078241;28;20024;-89
2021/06/04 01:58:03;;;;;;;11.95;5.95;;;;;;;;;;5077935;28;20020;-89
2021/06/04 02:00:31;;;;;;;11.30;5.32;;;;;;;;;;5077810;28;20020;-87
2021/06/04 02:02:57;;;;;;;11.18;5.90;;;;;;;;;;5077734;28;20036;-85
2021/06/04 02:05:27;;;;;;;10.63;5.50;;;;;;;;;;5077575;28;20361;-89
2021/06/04 02:07:53;;;;;;;14.95;6.03;;;;;;;;;;5077814;28;20115;-91
2021/06/04 02:10:22;;;;;;;10.00;6.07;;;;;;;;;;5076962;28;20111;-92
2021/06/04 02:13:09;;;;;;;10.35;5.63;;;;;;;;;;5077736;28;20024;-91
2021/06/04 02:15:37;;;;;;;9.98;6.15;;;;;;;;;;5077777;28;20059;-92
2021/06/04 02:18:38;;;;;;;8.10;6.50;;;;;;;;;;5076862;28;20017;-91
2021/06/04 02:21:09;;;;;;;9.73;6.43;;;;;;;;;;4999883;28;20022;-92
2021/06/04 02:23:38;;;;;;;11.48;6.05;;;;;;;;;;5016288;28;20677;-91
2021/06/04 02:26:17;;;;;;;9.27;6.50;;;;;;;;;;5016369;28;20293;-91
2021/06/04 02:28:49;;;;;;;11.68;6.55;;;;;;;;;;5016306;28;20034;-90
2021/06/04 02:31:22;;;;;;;10.65;6.57;;;;;;;;;;5016591;28;20089;-90
2021/06/04 02:33:52;;;;;;;12.57;6.38;;;;;;;;;;4999720;28;20050;-90
2021/06/04 02:36:35;;;;;;;11.98;6.50;;;;;;;;;;4999754;28;20058;-91
2021/06/04 02:39:07;;;;;;;11.50;6.40;;;;;;;;;;5016166;28;20036;-90
2021/06/04 02:47:42;;;;;;;12.48;7.07;;;;;;;;;;5016030;28;20132;-90
2021/06/04 02:50:10;;;;;;;15.27;7.75;;;;;;;;;;5016350;28;20050;-91
2021/06/04 02:52:38;;;;;;;11.52;6.70;;;;;;;;;;5016086;28;20026;-90
2021/06/04 02:55:06;;;;;;;14.05;6.28;;;;;;;;;;5049126;28;20039;-91
2021/06/04 02:57:33;;;;;;;10.65;6.55;;;;;;;;;;5081491;28;20321;-92
2021/06/04 02:59:59;;;;;;;12.38;7.00;;;;;;;;;;5081030;28;20394;-92
2021/06/04 03:02:27;;;;;;;11.70;7.03;;;;;;;;;;5081160;28;20024;-92
2021/06/04 03:04:57;;;;;;;13.90;7.15;;;;;;;;;;5081374;28;20035;-92
2021/06/04 03:07:26;;;;;;;8.77;6.45;;;;;;;;;;5079930;28;20032;-90
2021/06/04 03:09:53;;;;;;;13.05;6.97;;;;;;;;;;5081211;28;20036;-91
2021/06/04 03:12:24;;;;;;;14.68;7.70;;;;;;;;;;5081482;28;20028;-90
2021/06/04 03:14:51;;;;;;;10.52;7.15;;;;;;;;;;5080861;28;20493;-91
2021/06/04 03:17:21;;;;;;;11.38;7.97;;;;;;;;;;5081172;28;20033;-88
2021/06/04 03:19:47;;;;;;;14.02;7.20;;;;;;;;;;5080177;28;20067;-88
2021/06/04 03:22:33;;;;;;;10.88;7.35;;;;;;;;;;5079957;28;20077;-88
2021/06/04 03:25:01;;;;;;;14.70;7.80;;;;;;;;;;5079660;28;20033;-89
2021/06/04 03:27:27;;;;;;;14.27;8.18;;;;;;;;;;5080742;28;20032;-89
2021/06/04 03:29:53;;;;;;;16.92;7.72;;;;;;;;;;5079896;28;20066;-89
2021/06/04 03:32:20;;;;;;;20.15;11.45;;;;;;;;;;5080481;28;20025;-90
2021/06/04 03:34:47;;;;;;;22.13;11.27;;;;;;;;;;5080487;28;20031;-88
2021/06/04 03:37:13;;;;;;;18.63;9.65;;;;;;;;;;5080611;28;20013;-88
2021/06/04 03:39:41;;;;;;;13.98;8.52;;;;;;;;;;5079612;28;20406;-89
2021/06/04 03:42:10;;;;;;;13.52;9.07;;;;;;;;;;5080787;28;20021;-89
2021/06/04 03:44:37;;;;;;;15.43;8.80;;;;;;;;;;5080827;28;20032;-89
2021/06/04 03:47:04;;;;;;;14.48;8.93;;;;;;;;;;5080621;28;20032;-88
2021/06/04 03:49:30;;;;;;;14.38;8.13;;;;;;;;;;5080833;28;20077;-90
2021/06/04 03:51:57;;;;;;;17.23;7.72;;;;;;;;;;5080467;28;20047;-89
2021/06/04 03:54:30;;;;;;;14.85;8.20;;;;;;;;;;5080456;28;20020;-90
2021/06/04 03:56:56;;;;;;;13.93;8.88;;;;;;;;;;5079392;28;20112;-91
2021/06/04 03:59:23;;;;;;;15.98;8.40;;;;;;;;;;5080400;28;20021;-91
2021/06/04 04:01:52;;;;;;;15.95;7.60;;;;;;;;;;5080273;28;20016;-90
2021/06/04 04:04:18;;;;;;;15.65;7.43;;;;;;;;;;5079211;28;20441;-91
2021/06/04 04:06:45;;;;;;;15.70;7.53;;;;;;;;;;5079706;28;20357;-91
2021/06/04 04:09:11;;;;;;;14.50;7.03;;;;;;;;;;5079316;28;20028;-90
2021/06/04 04:11:38;;;;;;;13.43;7.70;;;;;;;;;;5079224;28;20327;-90
2021/06/04 04:14:42;;;;;;;13.88;7.30;;;;;;;;;;5079955;28;20410;-89
2021/06/04 04:17:08;;;;;;;13.38;7.28;;;;;;;;;;5078979;28;20111;-88
2021/06/04 04:19:34;;;;;;;15.77;7.35;;;;;;;;;;5079890;28;20078;-89
2021/06/04 04:22:00;;;;;;;11.98;7.18;;;;;;;;;;5078916;28;20310;-88
2021/06/04 04:24:30;;;;;;;14.45;7.10;;;;;;;;;;5079804;28;20032;-89
2021/06/04 04:26:56;;;;;;;13.70;7.38;;;;;;;;;;5079820;28;20032;-89
2021/06/04 04:29:23;;;;;;;10.57;7.10;;;;;;;;;;5079241;28;20029;-92
2021/06/04 04:31:50;;;;;;;13.73;7.93;;;;;;;;;;5078777;28;20029;-92
2021/06/04 04:34:17;;;;;;;14.02;7.15;;;;;;;;;;5079115;28;20053;-90
2021/06/04 04:36:45;;;;;;;11.73;7.68;;;;;;;;;;5079565;28;20031;-91
2021/06/04 04:39:13;;;;;;;14.90;7.53;;;;;;;;;;5079415;28;20337;-89
2021/06/04 04:41:39;;;;;;;11.77;8.18;;;;;;;;;;5079358;28;20024;-91
2021/06/04 04:44:06;;;;;;;15.55;8.70;;;;;;;;;;5079390;28;20056;-89
2021/06/04 04:46:32;;;;;;;16.38;9.35;;;;;;;;;;5078591;28;20075;-92
2021/06/04 04:48:59;;;;;;;17.70;8.77;;;;;;;;;;5078378;28;20029;-91
2021/06/04 04:51:26;;;;;;;13.45;8.10;;;;;;;;;;5079190;28;20430;-91
2021/06/04 04:53:52;;;;;;;19.00;9.30;;;;;;;;;;5079077;28;20032;-91
2021/06/04 04:56:19;;;;;;;19.38;8.63;;;;;;;;;;5079041;28;20108;-92
2021/06/04 04:58:46;;;;;;;20.98;8.85;;;;;;;;;;5078068;28;20074;-91
2021/06/04 05:01:13;;;;;;;18.45;8.27;;;;;;;;;;5078040;28;20029;-91
2021/06/04 05:03:39;;;;;;;11.05;6.95;;;;;;;;;;5079429;28;20309;-90
2021/06/04 05:06:05;;;;;;;14.52;7.57;;;;;;;;;;5079265;28;20107;-90
2021/06/04 05:08:31;;;;;;;14.00;7.72;;;;;;;;;;5078744;28;20036;-91
2021/06/04 05:10:58;;;;;;;14.05;7.47;;;;;;;;;;5078056;28;20028;-89
2021/06/04 05:13:24;;;;;;;15.57;7.22;;;;;;;;;;5078754;28;20024;-89
2021/06/04 05:15:51;;;;;;;14.73;7.53;;;;;;;;;;5078763;28;20311;-88
2021/06/04 05:18:17;;;;;;;15.30;9.15;;;;;;;;;;5076958;28;20398;-89
2021/06/04 05:20:44;;;;;;;19.10;8.13;;;;;;;;;;5077707;28;20021;-88
2021/06/04 05:23:11;;;;;;;15.45;8.77;;;;;;;;;;5078649;28;20429;-87
2021/06/04 05:25:41;;;;;;;25.27;9.63;;;;;;;;;;5077729;28;20123;-90
2021/06/04 05:28:08;;;;;;;21.27;8.88;;;;;;;;;;5078505;28;20414;-91
2021/06/04 05:30:36;;;;;;;19.25;8.57;;;;;;;;;;5077481;28;20044;-89
2021/06/04 05:33:03;;;;;;;26.75;9.05;;;;;;;;;;5077972;28;20100;-89
2021/06/04 05:35:29;;;;;;;27.45;9.52;;;;;;;;;;5078599;28;20024;-93
2021/06/04 05:37:56;;;;;;;27.83;9.77;;;;;;;;;;5078392;28;20096;-92
2021/06/04 05:40:24;;;;;;;17.77;9.05;;;;;;;;;;5078062;28;20024;-92
2021/06/04 05:42:50;;;;;;;13.20;7.93;;;;;;;;;;5078588;28;20024;-91
2021/06/04 05:45:17;;;;;;;13.00;7.10;;;;;;;;;;5078180;28;20438;-89
2021/06/04 05:47:44;;;;;;;17.33;6.93;;;;;;;;;;5077982;28;20032;-89
2021/06/04 05:50:14;;;;;;;14.00;6.40;;;;;;;;;;5077185;28;20021;-89
2021/06/04 05:52:41;;;;;;;18.73;6.38;;;;;;;;;;5077987;28;20407;-92
2021/06/04 05:55:09;;;;;;;16.67;6.40;;;;;;;;;;5077956;28;20020;-91
2021/06/04 05:57:35;;;;;;;9.50;5.60;;;;;;;;;;5078096;28;20418;-86
2021/06/04 06:00:01;;;;;;;15.00;6.43;;;;;;;;;;5078105;28;20032;-92
2021/06/04 06:02:27;;;;;;;13.00;6.30;;;;;;;;;;5077732;28;20327;-94
2021/06/04 06:04:53;;;;;;;19.75;6.95;;;;;;;;;;5078042;28;20295;-91
2021/06/04 06:07:19;;;;;;;9.30;5.88;;;;;;;;;;5077922;28;20112;-93
2021/06/04 06:09:45;;;;;;;16.52;7.15;;;;;;;;;;5077989;28;20029;-94
2021/06/04 06:12:12;;;;;;;15.05;7.07;;;;;;;;;;5076878;28;20123;-92
2021/06/04 06:14:38;;;;;;;11.82;6.32;;;;;;;;;;5077682;28;20084;-92
2021/06/04 06:17:04;;;;;;;12.90;5.60;;;;;;;;;;5077652;28;20032;-94
2021/06/04 06:19:30;;;;;;;6.60;5.05;;;;;;;;;;5077024;28;20025;-92
2021/06/04 06:21:57;;;;;;;13.77;5.68;;;;;;;;;;5077613;28;20020;-92
2021/06/04 06:24:23;;;;;;;13.45;5.32;;;;;;;;;;5077562;28;20028;-94
2021/06/04 06:26:49;;;;;;;9.80;5.88;;;;;;;;;;5076920;28;20039;-93
2021/06/04 06:29:16;;;;;;;10.68;4.80;;;;;;;;;;5076599;28;20042;-93
2021/06/04 06:31:43;;;;;;;10.27;5.28;;;;;;;;;;5077768;28;20028;-91
2021/06/04 06:34:09;;;;;;;11.30;4.80;;;;;;;;;;5077234;28;20079;-94
2021/06/04 06:36:37;;;;;;;9.07;4.80;;;;;;;;;;5077774;28;20021;-92
2021/06/04 06:39:08;;;;;;;12.30;4.78;;;;;;;;;;5077586;28;20025;-93
2021/06/04 06:41:34;;;;;;;12.33;5.67;;;;;;;;;;5076478;28;20108;-92
2021/06/04 06:44:00;;;;;;;9.38;5.55;;;;;;;;;;5077388;28;20599;-93
2021/06/04 06:46:27;;;;;;;7.00;4.85;;;;;;;;;;5077476;28;20035;-94
2021/06/04 06:48:54;;;;;;;18.88;10.52;;;;;;;;;;5077503;28;20025;-92
2021/06/04 06:51:20;;;;;;;16.80;7.20;;;;;;;;;;5076531;28;20020;-92
2021/06/04 06:53:46;;;;;;;15.40;7.72;;;;;;;;;;5077336;28;20050;-92
2021/06/04 06:56:14;;;;;;;22.90;13.63;;;;;;;;;;5077248;28;20024;-91
2021/06/04 06:58:40;;;;;;;22.80;9.77;;;;;;;;;;5076450;28;20393;-91
2021/06/04 07:01:06;;;;;;;50.20;26.75;;;;;;;;;;5076396;28;20027;-91
2021/06/04 07:03:33;;;;;;;24.83;9.80;;;;;;;;;;5076303;28;20040;-92
2021/06/04 07:06:01;;;;;;;29.88;15.05;;;;;;;;;;5076641;28;20036;-92
2021/06/04 07:08:27;;;;;;;42.33;24.50;;;;;;;;;;5076425;28;20067;-91
2021/06/04 07:10:54;;;;;;;15.10;9.23;;;;;;;;;;5077252;28;20035;-91
2021/06/04 07:13:25;;;;;;;10.80;6.75;;;;;;;;;;5077039;28;20016;-92
2021/06/04 07:15:52;;;;;;;11.90;6.93;;;;;;;;;;5077219;28;20074;-91
2021/06/04 07:18:18;;;;;;;15.40;7.82;;;;;;;;;;5076198;28;20419;-91
2021/06/04 07:20:44;;;;;;;10.50;5.68;;;;;;;;;;5077297;28;20025;-91
2021/06/04 07:23:11;;;;;;;16.65;8.43;;;;;;;;;;5077162;28;20028;-91
2021/06/04 07:25:39;;;;;;;12.77;7.30;;;;;;;;;;5076730;28;20024;-91
2021/06/04 07:28:06;;;;;;;11.40;4.70;;;;;;;;;;5077015;28;20116;-91
2021/06/04 07:30:35;;;;;;;8.63;5.05;;;;;;;;;;5077052;28;20102;-90
2021/06/04 07:33:02;;;;;;;7.63;4.68;;;;;;;;;;5076170;28;20044;-91
2021/06/04 07:35:29;;;;;;;19.23;5.38;;;;;;;;;;5077196;28;20024;-92
2021/06/04 07:37:56;;;;;;;13.73;5.20;;;;;;;;;;5076774;28;20028;-91
2021/06/04 07:40:26;;;;;;;13.05;6.65;;;;;;;;;;5077395;28;20021;-91
2021/06/04 07:42:52;;;;;;;16.30;5.78;;;;;;;;;;5080438;28;20028;-91
2021/06/04 07:45:20;;;;;;;10.80;6.00;;;;;;;;;;5080742;28;20032;-94
2021/06/04 07:47:46;;;;;;;62.72;41.78;;;;;;;;;;5080663;28;20046;-94
2021/06/04 07:50:12;;;;;;;13.57;7.43;;;;;;;;;;5081371;28;20032;-90
2021/06/04 07:52:39;;;;;;;8.55;5.30;;;;;;;;;;5080704;28;20023;-94
2021/06/04 07:55:06;;;;;;;55.70;38.28;;;;;;;;;;5081467;28;20402;-89
2021/06/04 07:57:32;;;;;;;28.58;7.68;;;;;;;;;;5079811;28;20322;-92
2021/06/04 07:59:59;;;;;;;10.43;4.63;;;;;;;;;;5080489;28;20147;-91
2021/06/04 08:02:25;;;;;;;9.88;4.70;;;;;;;;;;5079490;28;20029;-92
2021/06/04 08:04:54;;;;;;;11.30;4.07;;;;;;;;;;5080375;28;20533;-90
2021/06/04 08:07:20;;;;;;;11.60;4.53;;;;;;;;;;5080126;28;20024;-91
2021/06/04 08:09:46;;;;;;;6.38;3.30;;;;;;;;;;5080275;28;20414;-90
2021/06/04 08:12:15;;;;;;;8.82;3.60;;;;;;;;;;5079766;28;20020;-91
2021/06/04 08:14:41;;;;;;;14.68;5.45;;;;;;;;;;5080097;28;20036;-92
2021/06/04 08:17:07;;;;;;;11.02;4.18;;;;;;;;;;5080128;28;20044;-92
2021/06/04 08:19:34;;;;;;;6.32;3.63;;;;;;;;;;5079427;28;20479;-92
2021/06/04 08:22:01;;;;;;;12.30;3.63;;;;;;;;;;5078961;28;20021;-91
2021/06/04 08:24:29;;;;;;;12.25;3.55;;;;;;;;;;5079815;28;20033;-91
2021/06/04 08:26:56;;;;;;;9.85;2.88;;;;;;;;;;5079838;28;20082;-91
2021/06/04 08:29:23;;;;;;;8.27;3.13;;;;;;;;;;5079051;28;20025;-91
2021/06/04 08:31:49;;;;;;;9.00;3.35;;;;;;;;;;5079017;28;20386;-91
2021/06/04 08:34:15;;;;;;;7.70;4.72;;;;;;;;;;5079312;28;20056;-91
2021/06/04 08:36:44;;;;;;;5.75;3.78;;;;;;;;;;5079547;28;20028;-91
2021/06/04 08:39:12;;;;;;;7.55;2.70;;;;;;;;;;5078536;28;20326;-89
2021/06/04 08:41:43;;;;;;;7.78;3.42;;;;;;;;;;5078577;28;20025;-90
2021/06/04 08:44:46;;;;;;;8.17;3.17;;;;;;;;;;5079738;28;20071;-90
2021/06/04 08:47:14;;;;;;;3.60;2.65;;;;;;;;;;5078542;28;20032;-90
2021/06/04 08:49:59;;;;;;;6.15;3.15;;;;;;;;;;5079365;28;20059;-91
2021/06/04 08:52:33;;;;;;;10.00;2.92;;;;;;;;;;5079193;28;20025;-89
2021/06/04 08:55:11;;;;;;;6.85;3.15;;;;;;;;;;5079224;28;20032;-89
2021/06/04 08:57:52;;;;;;;7.88;3.22;;;;;;;;;;5078533;28;20032;-90
2021/06/04 09:00:18;;;;;;;6.75;3.42;;;;;;;;;;5074497;28;20035;-90
2021/06/04 09:02:54;;;;;;;4.88;3.40;;;;;;;;;;5079148;28;20349;-90
2021/06/04 09:05:23;;;;;;;3.70;3.00;;;;;;;;;;5079133;28;20065;-91
2021/06/04 09:07:50;;;;;;;5.53;3.03;;;;;;;;;;5078155;28;20021;-91
2021/06/04 09:10:22;;;;;;;6.53;2.80;;;;;;;;;;5078034;28;20020;-90
2021/06/04 09:12:53;;;;;;;10.07;3.45;;;;;;;;;;5078690;28;20425;-91
2021/06/04 09:15:23;;;;;;;6.55;2.85;;;;;;;;;;5077827;28;20040;-89
2021/06/04 09:18:25;;;;;;;7.82;2.58;;;;;;;;;;5077880;28;20028;-89
2021/06/04 09:20:54;;;;;;;10.35;3.17;;;;;;;;;;5077088;28;20434;-89
2021/06/04 09:23:25;;;;;;;6.05;3.45;;;;;;;;;;5076853;28;20028;-90
2021/06/04 09:25:51;;;;;;;;;;;;;;;;;;5077357;28;20028;-90
2021/06/04 09:28:20;;;;;;;8.18;2.67;;;;;;;;;;5060085;28;19927;-88
2021/06/04 09:30:47;;;;;;;6.90;2.47;;;;;;;;;;5076967;28;20028;-89
2021/06/04 09:33:22;;;;;;;6.70;2.75;;;;;;;;;;5076276;28;20083;-89
2021/06/04 09:36:06;;;;;;;6.65;2.58;;;;;;;;;;5076577;28;20479;-89
2021/06/04 09:38:47;;;;;;;5.88;2.38;;;;;;;;;;5060219;28;20112;-89
2021/06/04 09:41:25;;;;;;;7.63;3.17;;;;;;;;;;5059300;28;20025;-83
2021/06/04 09:44:03;;;;;;;8.30;3.72;;;;;;;;;;5059252;28;20043;-83
2021/06/04 09:46:32;;;;;;;5.85;3.45;;;;;;;;;;5075946;28;20406;-83
2021/06/04 09:48:59;;;;;;;13.57;4.57;;;;;;;;;;5075982;28;20033;-83
2021/06/04 09:51:33;;;;;;;5.90;3.17;;;;;;;;;;5075548;28;20048;-83
2021/06/04 09:54:16;;;;;;;9.85;2.97;;;;;;;;;;5076177;28;20322;-83
2021/06/04 09:56:42;;;;;;;4.57;2.60;;;;;;;;;;5076663;28;20103;-83
2021/06/04 09:59:13;;;;;;;6.32;3.28;;;;;;;;;;5077633;28;20017;-82
2021/06/04 10:01:53;;;;;;;7.30;2.15;;;;;;;;;;5077525;28;20020;-83
2021/06/04 10:04:30;;;;;;;6.00;2.20;;;;;;;;;;5077484;28;20098;-83
2021/06/04 10:07:17;;;;;;;4.93;2.50;;;;;;;;;;5077517;28;20138;-83
2021/06/04 10:09:45;;;;;;;10.02;2.55;;;;;;;;;;5077496;28;20024;-83
2021/06/04 10:12:32;;;;;;;6.32;3.22;;;;;;;;;;5076336;28;20033;-84
2021/06/04 10:15:02;;;;;;;34.47;4.47;;;;;;;;;;5077176;28;20021;-83
2021/06/04 10:20:20;;;;;;;5.60;2.85;;;;;;;;;;5077438;28;20063;-83
2021/06/04 10:22:47;;;;;;;7.22;2.30;;;;;;;;;;5077541;28;20020;-83
2021/06/04 10:25:13;;;;;;;7.47;2.80;;;;;;;;;;5077377;28;20020;-84
2021/06/04 10:27:55;;;;;;;8.23;3.22;;;;;;;;;;5076196;28;20024;-84
2021/06/04 10:30:44;;;;;;;3.80;2.80;;;;;;;;;;5077320;28;20083;-82
2021/06/04 10:33:23;;;;;;;3.85;2.35;;;;;;;;;;5075213;28;20068;-84
2021/06/04 10:35:56;;;;;;;7.03;2.85;;;;;;;;;;5075663;28;20159;-87
2021/06/04 10:38:36;;;;;;;41.17;4.35;;;;;;;;;;5078273;28;20028;-94
2021/06/04 10:41:34;;;;;;;523.58;26.58;;;;;;;;;;5063421;28;20047;-96
2021/06/04 10:44:12;;;;;;;69.28;6.47;;;;;;;;;;5036680;28;20037;-88
2021/06/04 10:46:48;;;;;;;14.88;2.90;;;;;;;;;;5036014;28;20316;-88
2021/06/04 10:49:32;;;;;;;11.88;2.50;;;;;;;;;;5035825;28;20376;-88
2021/06/04 10:52:01;;;;;;;25.00;4.38;;;;;;;;;;5035883;28;20030;-91
2021/06/04 10:54:39;;;;;;;9.40;2.30;;;;;;;;;;5035461;28;20116;-76
2021/06/04 10:57:41;;;;;;;6.38;2.80;;;;;;;;;;5034844;28;20372;-76
2021/06/04 11:00:14;;;;;;;8.05;3.08;;;;;;;;;;5015128;28;20432;-76
2021/06/04 11:02:48;;;;;;;17.52;3.83;;;;;;;;;;5015040;28;20120;-77
2021/06/04 11:05:23;;;;;;;31.05;5.25;;;;;;;;;;5015121;28;20408;-80
2021/06/04 11:07:55;;;;;;;8.45;2.33;;;;;;;;;;5014972;28;20077;-75
2021/06/04 11:10:33;;;;;;;11.38;2.97;;;;;;;;;;5003687;28;20043;-75
2021/06/04 11:13:05;;;;;;;23.00;5.20;;;;;;;;;;4995249;28;20039;-76
2021/06/04 11:15:31;;;;;;;5.55;2.72;;;;;;;;;;4996017;28;20062;-76
2021/06/04 11:17:57;;;;;;;8.75;2.80;;;;;;;;;;4999222;28;20073;-75
2021/06/04 11:20:27;;;;;;;7.45;3.10;;;;;;;;;;5048585;28;20412;-75
2021/06/04 11:22:59;;;;;;;18.35;11.10;;;;;;;;;;5058331;28;20029;-76
2021/06/04 11:25:27;;;;;;;20.02;14.88;;;;;;;;;;5058420;28;20100;-75
2021/06/04 11:28:07;;;;;;;59.60;40.67;;;;;;;;;;5058260;28;20078;-75
2021/06/04 11:30:34;;;;;;;12.75;5.90;;;;;;;;;;5058279;28;20021;-75
2021/06/04 11:33:06;;;;;;;4.78;2.50;;;;;;;;;;5042185;28;20435;-76
2021/06/04 11:35:35;;;;;;;5.03;2.15;;;;;;;;;;5078914;28;20444;-75
2021/06/04 11:38:08;;;;;;;4.55;3.13;;;;;;;;;;5080017;28;20024;-76
2021/06/04 11:40:37;;;;;;;12.02;6.15;;;;;;;;;;5079957;28;20416;-75
2021/06/04 11:43:15;;;;;;;7.82;2.55;;;;;;;;;;5078803;28;20497;-76
2021/06/04 11:45:43;;;;;;;5.97;2.70;;;;;;;;;;5079935;28;20059;-76
2021/06/04 11:48:21;;;;;;;6.80;2.40;;;;;;;;;;5079863;28;20051;-76
2021/06/04 11:50:48;;;;;;;8.57;2.50;;;;;;;;;;5078666;28;20067;-76
2021/06/04 11:53:14;;;;;;;4.05;2.67;;;;;;;;;;5079979;28;20028;-76
2021/06/04 11:55:40;;;;;;;5.40;2.40;;;;;;;;;;5079932;28;20352;-76
2021/06/04 11:58:18;;;;;;;4.05;2.38;;;;;;;;;;5079618;28;20020;-76
2021/06/04 12:00:46;;;;;;;4.18;2.30;;;;;;;;;;5079622;28;20437;-76
2021/06/04 12:03:14;;;;;;;6.75;2.50;;;;;;;;;;5079745;28;20032;-76
2021/06/04 12:05:42;;;;;;;6.47;2.70;;;;;;;;;;5079506;28;20025;-76
2021/06/04 12:08:13;;;;;;;6.05;2.80;;;;;;;;;;5079573;28;20029;-76
2021/06/04 12:10:39;;;;;;;;;;;;;;;;;;5079821;28;20024;-76
2021/06/04 12:13:05;;;;;;;6.82;2.25;;;;;;;;;;5079319;28;19942;-76
2021/06/04 12:15:36;;;;;;;6.45;2.60;;;;;;;;;;5079473;28;20108;-75
2021/06/04 12:18:22;;;;;;;25.95;17.67;;;;;;;;;;5079700;28;20012;-76
2021/06/04 12:20:49;;;;;;;8.95;3.03;;;;;;;;;;5079625;28;20048;-76
2021/06/04 12:23:35;;;;;;;10.80;3.90;;;;;;;;;;5079379;28;20111;-77
2021/06/04 12:26:02;;;;;;;6.35;2.70;;;;;;;;;;5077209;28;20036;-76
2021/06/04 12:28:28;;;;;;;14.07;2.83;;;;;;;;;;5077009;28;20041;-76
2021/06/04 12:30:57;;;;;;;7.18;2.80;;;;;;;;;;5077321;28;20047;-76
2021/06/04 12:33:42;;;;;;;10.70;2.90;;;;;;;;;;5076829;28;20041;-76
2021/06/04 12:36:26;;;;;;;3.85;1.98;;;;;;;;;;5077079;28;20024;-76
2021/06/04 12:38:52;;;;;;;12.27;2.65;;;;;;;;;;5077083;28;20023;-77
2021/06/04 12:41:22;;;;;;;9.18;2.50;;;;;;;;;;5076957;28;20390;-76
2021/06/04 12:43:52;;;;;;;7.05;2.60;;;;;;;;;;5076787;28;20044;-78
2021/06/04 12:46:19;;;;;;;4.63;2.00;;;;;;;;;;5076985;28;20028;-77
2021/06/04 12:48:48;;;;;;;5.20;2.17;;;;;;;;;;5077124;28;20028;-76
2021/06/04 12:51:19;;;;;;;5.72;2.72;;;;;;;;;;5076844;28;20460;-77
2021/06/04 12:53:49;;;;;;;10.20;2.47;;;;;;;;;;5059973;28;20040;-78
2021/06/04 12:56:18;;;;;;;5.00;2.30;;;;;;;;;;5076693;28;20024;-76
2021/06/04 12:58:47;;;;;;;7.25;3.30;;;;;;;;;;5076687;28;20322;-77
2021/06/04 13:01:23;;;;;;;4.05;2.67;;;;;;;;;;5076759;28;20050;-85
2021/06/04 13:03:51;;;;;;;4.05;2.50;;;;;;;;;;5078109;28;20440;-77
2021/06/04 13:06:23;;;;;;;5.60;2.90;;;;;;;;;;5077362;28;20337;-76
2021/06/04 13:08:49;;;;;;;7.07;2.67;;;;;;;;;;5078221;28;20021;-77
2021/06/04 13:11:32;;;;;;;12.23;2.50;;;;;;;;;;5077985;28;20307;-76
2021/06/04 13:13:58;;;;;;;5.65;2.60;;;;;;;;;;5077897;28;20028;-79
2021/06/04 13:16:25;;;;;;;5.60;2.55;;;;;;;;;;5078486;28;20040;-78
2021/06/04 13:18:52;;;;;;;9.02;3.25;;;;;;;;;;5077010;28;20050;-75
2021/06/04 13:21:22;;;;;;;19.58;4.85;;;;;;;;;;5077951;28;20432;-79
2021/06/04 13:24:02;;;;;;;23.33;7.65;;;;;;;;;;5078188;28;20035;-83
2021/06/04 13:26:31;;;;;;;28.23;8.15;;;;;;;;;;5079466;28;20024;-92
2021/06/04 13:28:58;;;;;;;29.95;6.82;;;;;;;;;;5079487;28;20059;-92
2021/06/04 13:31:28;;;;;;;13.18;4.32;;;;;;;;;;5079019;28;20314;-91
2021/06/04 13:33:56;;;;;;;22.08;8.00;;;;;;;;;;5078526;28;20045;-94
2021/06/04 13:36:24;;;;;;;24.23;7.88;;;;;;;;;;5078656;28;20020;-90
2021/06/04 13:39:00;;;;;;;20.30;7.72;;;;;;;;;;5077914;28;20024;-88
2021/06/04 13:41:26;;;;;;;30.45;7.35;;;;;;;;;;5077374;28;20024;-90
2021/06/04 13:48:36;;;;;;;16.02;3.75;;;;;;;;;;5131252;27;20700;-73
2021/06/04 13:51:05;;;;;;;127.60;10.85;;;;;;;;;;5115104;28;20050;-73
2021/06/04 13:53:37;;;;;;;126.38;11.60;;;;;;;;;;5114930;28;20077;-74
2021/06/04 13:56:15;;;;;;;60.85;7.28;;;;;;;;;;5114936;28;20028;-74
2021/06/04 13:58:41;;;;;;;8.05;2.90;;;;;;;;;;5114733;28;20035;-75
2021/06/04 14:01:13;;;;;;;11.82;3.08;;;;;;;;;;5114797;28;20046;-74
2021/06/04 14:03:50;;;;;;;7.53;2.63;;;;;;;;;;5114933;28;20034;-72
2021/06/04 14:06:16;;;;;;;9.02;2.95;;;;;;;;;;5114559;28;20095;-72
2021/06/04 14:08:54;;;;;;;5.57;2.50;;;;;;;;;;5114011;28;20342;-74
2021/06/04 14:11:20;;;;;;;5.68;2.40;;;;;;;;;;5113588;28;20024;-72
2021/06/04 14:13:46;;;;;;;10.27;2.63;;;;;;;;;;5114439;28;20020;-73
2021/06/04 14:16:13;;;;;;;11.35;2.95;;;;;;;;;;5114335;28;20019;-73
2021/06/04 14:18:41;;;;;;;4.32;2.55;;;;;;;;;;5114533;28;20028;-73
2021/06/04 14:21:21;;;;;;;5.40;2.33;;;;;;;;;;5114487;28;20024;-74
2021/06/04 14:23:56;;;;;;;6.20;2.92;;;;;;;;;;5114300;28;20018;-73
2021/06/04 14:26:40;;;;;;;10.57;3.03;;;;;;;;;;5114254;28;20417;-73
2021/06/04 14:29:11;;;;;;;5.35;2.85;;;;;;;;;;5114109;28;20067;-73
2021/06/04 14:31:37;;;;;;;6.03;2.60;;;;;;;;;;5114203;28;20095;-73
2021/06/04 14:34:04;;;;;;;17.90;6.43;;;;;;;;;;5114098;28;20061;-74
2021/06/04 14:36:34;;;;;;;10.00;4.45;;;;;;;;;;5114030;28;20501;-73
2021/06/04 14:39:19;;;;;;;6.45;2.55;;;;;;;;;;5114062;28;20030;-73
2021/06/04 14:41:45;;;;;;;3.95;2.95;;;;;;;;;;5114365;28;20077;-93
2021/06/04 14:47:46;;;;;;;4.78;2.90;;;;;;;;;;5103897;28;20079;-90
2021/06/04 14:50:17;;;;;;;12.43;2.78;;;;;;;;;;5114745;28;20024;-90
2021/06/04 14:52:44;;;;;;;6.18;2.40;;;;;;;;;;5114634;28;20032;-90
2021/06/04 14:55:11;;;;;;;6.05;2.33;;;;;;;;;;5114366;28;20418;-90
2021/06/04 15:01:20;;;;;;;7.55;2.17;;;;;;;;;;5100901;28;20088;-90
2021/06/04 15:03:47;;;;;;;6.00;2.30;;;;;;;;;;5099768;28;20085;-90
2021/06/04 15:06:13;;;;;;;6.75;2.33;;;;;;;;;;5100631;28;20035;-91
2021/06/04 15:08:40;;;;;;;5.43;2.30;;;;;;;;;;5100682;28;20062;-91
2021/06/04 15:11:07;;;;;;;6.95;2.65;;;;;;;;;;5094520;28;20016;-91
2021/06/04 15:13:41;;;;;;;5.88;2.40;;;;;;;;;;5088845;28;20048;-90